Temps Etape 1 et Heures de D├ępart Etape 2  
 
HeureConducteurAsaCoéquipierVoitureGroupeClassePénaTempsEcarts
10h501CUOQ Jean-MarieARDECHEGRANDEMANGE MarielleCITROËN C4 WRCA8W 0:44:08,10 
10h522MAURIN JulienMONTELIMARKLINGER NicolasFORD Fiesta WRCA8W 0:44:19,8000:11,70
10h543BAUD LionelMONT-BLANCSERRE PascalFORD Fiesta WRCA8W 0:44:58,8000:50,70
10h5611LEFEBVRE StéphaneDETROITPREVOT StéphaneCITROËN DS3 R5RR5 0:45:29,7001:21,60
10h5822CODOU StephanGARD-CEVENNESTRIAIRE StéphaneSUBARU Impreza WRXN4 0:47:14,5003:06,40
11h009CHAMBON StéphaneMEDITERRANÉEPÂQUE AntoineCITROËN DS3 R5RR5 0:47:27,5003:19,40
11h0221MORDACQ ArnaudDETROITVAUCLARE FrédéricMITSUBISHI Lancer Evo9FN4 0:47:29,1003:21,0
11h046HENNION CédricBITTEROISISNARD PatrickCITROËN DS3 WRCA8W 0:47:29,7003:21,60
11h0624DURIEU FrançoisMEDITERRANÉEESCARTEFIGUE ThomasSUBARU Impreza WRX StiN4 0:48:26,004:17,90
11h087BEAUBELIQUE Jean-CharlesSAINT MARTIALVIAL JulienFORD Focus WRCA8W 0:48:41,9004:33,80
11h104FERAUD CyrilleGRASSEDUCHEMIN AymericCITROËN Xsara WRCFA8W 10:57:46,20Super Rallye
11h1212HIRSCHI JonathanSuisseLANDAIS VincentPEUGEOT 208 T16RR5 0:48:43,004:34,90
11h1427MARTI ChristianROUTE D'ARGENTPELAMOURGUES LaurenceMITSUBISHI Lancer Evo9FN4 0:48:53,2004:45,10
11h1551SUAREZ MIRANDA José-AntonioEspagneCANDIDO Carrera EstevezPEUGEOT 208 VTIRR2 0:48:55,7004:47,60
11h1645CONSANI StéphaneMARSEILLEVANNESTE LaraPEUGEOT 208 VTIRR2 0:49:05,9004:57,80
11h1767DUBERT VincentL'AC DE CANNESPOUJOL SébastienCITROËN DS3 R3RR3 0:49:10,2005:02,10
11h1837GASCOU EmmanuelALESCHAPUS CélinePEUGEOT 208 VTIRR2 0:49:20,2005:12,10
11h1972MILLET DenisSEQUANIEBLONDEAU-TOINY RomainCITROËN DS3 R3RR3 0:49:22,4005:14,30
11h2068HAUSWALD FrédéricALSACEGAREL RomainCITROËN DS3 R3RR3 0:49:37,6005:29,50
11h2140BLANC François-XavierSAINT-AFFRIQUEDE TURCKEIM GillesPEUGEOT 208 VTIRR2 0:49:45,005:36,90
11h2243BERFA JordanMONTS D'AUTANAUGUSTIN DamienPEUGEOT 208 VTIRR2 0:49:46,7005:38,60
11h2366ROSSEL YohanALESFULCRAND BenoîtCITROËN DS3 R3RR3 0:49:50,2005:42,10
11h2439COMOLI FrantzVOSGIENGALMICHE IsabellePEUGEOT 208 VTIRR2 0:50:01,2005:53,10
11h2558MAGNOU PatrickDRAGUIGNAN-VERDONMANZO BenoîtPEUGEOT 208 VTIRR2 0:50:03,4005:55,30
11h2652LOPEZ Jose MariaEspagneHERNANDEZ RozadaPEUGEOT 208 VTIRR2 0:50:08,7006:00,60
11h2757DE MEVIUS GuillaumeBelgiqueBRION GeoffreyPEUGEOT 208 VTIRR2 0:50:09,5006:01,40
11h2849RABASSE CédricLANGRESJACQUES LaurentPEUGEOT 208 VTIRR2 0:50:10,4006:02,30
11h2947CHAVANNE JérômeANNEMASSEMONTVIGNIER RomainPEUGEOT 208 VTIRR2 0:50:15,2006:07,10
11h3042MONNIN Jean-Paul PAYS DE MONTBELIARDGILLIOT FranckPEUGEOT 208 VTIRR2 0:50:25,9006:17,80
11h3156FRANCESCHI Jean-BaptisteGRASSESALMON ValentinPEUGEOT 208 VTIRR2 0:50:27,3006:19,20
11h3273KNOF PhilippAllemagneSTEIN Anne-KatharinaCITROËN DS3 R3RR3 0:50:34,8006:26,70
11h3359CARELLA AndreaItalieBRACCHI HenricoPEUGEOT 208 VTIRR2 0:50:36,6006:28,50
11h3450TOEDTLI JérémieSuisseMILOSVLJEVIC SlobodanPEUGEOT 208 VTIRR2 0:50:38,9006:30,80
11h3541GARCIA AxelHERAULTPOMARES FabienPEUGEOT 208 VTIRR2 0:50:40,1006:32,0
11h3644PEARSON GarryAngleterreMOLE ClairePEUGEOT 208 VTIRR2 0:50:41,1006:33,0
11h3771DURBEC ThibaultVARMILLET KévinCITROËN DS3 R3RR3 0:50:46,006:37,90
11h3848RIBERI BrunoNICEHAUT-LABOURDETTE FlorianPEUGEOT 208 VTIRR2 0:50:55,4006:47,30
11h3933PUEL GérardROUTE D'ARGENTPUEL CarolineMITSUBISHI Lancer Evo6FN4 0:50:58,1006:50,0
11h4069DEFERT DamienMONT-BLANCLE MORILLON ChristopherCITROËN DS3 R3RR3 0:51:07,8006:59,70
11h4146NOTARGIACOMO JohanSAVOIEFAIVRE EmelinePEUGEOT 208 VTIRR2 0:51:28,3007:20,20
11h4253WAGNER WilliamMIRECOURTPARENT KévinPEUGEOT 208 VTIRR2 0:51:30,8007:22,70
11h4390GILHODES DamienSAINT-AFFRIQUEGILHODES Jean-LouisCITROËN Saxo T4FA6K 0:51:32,3007:24,20
11h4498JULIA DavidALESAUBERTIN LudovicPEUGEOT 206 RcF200014 0:51:35,1007:27,0
11h4581VIALLE LilianARDECHEGHIRARDELLO ManuelRENAULT Clio R3RR3 0:51:40,8007:32,70
11h4634CHANTRIAUX AudricTERRE DE CORSEDECLERCK LoïcMITSUBISHI Lancer Evo9FN4 0:51:43,3007:35,20
11h4735NOLORGUES RémiROUTE D'ARGENTBURGUIERE LucMITSUBISHI Lancer Evo6FN4 0:51:44,5007:36,40
11h4878VITAL Jean-PierreHAUTE VALLÉE DE LA LOIREDECOUZON PierreCITROËN Saxo VTSF200013 0:51:57,2007:49,10
11h4963COLLIGNON QuentinBelgiqueMERGNY WilliamPEUGEOT 208 VTIRR2 0:52:03,1007:55,0
11h5023GIRAUD EmmanuelGRASSEFERRARI LaraMITSUBISHI Lancer Evo8FN4 0:52:14,5008:06,40
11h5129DESANGLES YanisROUTE D'ARGENTTHERON NicolasSUBARU Impreza WRXN4 0:52:27,5008:19,40
11h5280DALMASSO CharlotteGRASSEROVIRA CélineCITROËN DS3 R3RR3 0:52:28,5008:20,40
11h5325CLEMENT ChristopheROUTE D'ARGENTRAYMOND AlainMITSUBISHI Lancer Evo8FN4 0:52:32,8008:24,70
11h5464PUPPO AnthonyGRASSEBOGLIO RémiPEUGEOT 208 VTIRR2 0:52:35,7008:27,60
11h5591MARCHAL EddyVOSGIENJOLÉ DamienCITROËN Saxo T4FA6K 0:52:36,2008:28,10
11h5665RAMIANDRISOA OlivierMadagascarANDRIAMITSARASOA Mamy DavidPEUGEOT 208 VTIRR2 0:52:48,1008:40,0
11h5799MASCLAUX ArnaudHAUTE VALLÉE DE LA LOIREMOULIN AlexandreRENAULT Clio RagnottiF200014 0:52:57,5008:49,40
11h58101BLANCK LionelROUTE D'ARGENTBLANCK ArnaudPEUGEOT 206 RcF200014 0:53:00,2008:52,10
11h5960MOLLARD AlexandreRHÔNEDUPANLOUP AlexandraPEUGEOT 208 VTIRR2 0:53:00,2008:52,10
12h00103GENDRAU PatriceAUXERROISGENDRAU EricCITROËN ZX 16VF200014 0:53:01,7008:53,60
12h01108ROUILLARD NicolasVIGNOBLE TARNAISBOUSQUET GuillaumePEUGEOT 306 S16F200014 0:53:04,4008:56,30
12h0282FRANCE JulienROUTE D'ARGENTMAZARGUIL PhilippeCITROËN C2 R2 MaxRR2 0:53:11,7009:03,60
12h03100RAYNAUD GabrielMIDI-TOULOUSEJULIEN WilliamSEAT IbizaF200014 0:53:15,6009:07,50
12h0462BOCHATAY KévinMONT-BLANCDEWAELE AlexandrePEUGEOT 208 VTIRR2 0:53:16,7009:08,60
12h05124GOUY QuentinROUTE D'ARGENTRASCALOU ThéoPEUGEOT 106 S16F200013 0:53:19,9009:11,80
12h06123CAYLA CorentinROUTE D'ARGENTCHABBERT MartinPEUGEOT 106 S16F200013 0:53:26,7009:18,60
12h0789MAS PaulINGRESGRANDÉ NicolasCITROËN Saxo T4FA6K 0:53:28,6009:20,50
12h0875MONNIN ChristopheFOREZCHOUDEY Marc-EmilienCITROËN DS3 R3RR3 0:53:37,009:28,90
12h0930LOPEZ YannickISTRESMERCIER MarjorieSUBARU Impreza WRXN4 0:53:50,3009:42,20
12h1070CLOSMENIL MichelBOCAGEPESENTI JulienCITROËN DS3 R3RR3 0:53:58,5009:50,40
12h1116MORAES HenriMEDITERRANÉEMORAES AnthonySUBARU ImprezaFA8 0:54:11,2010:03,10
12h12104BERGOUNHE PhilippeROUTE D'ARGENTBERGOUNHE ClémentPEUGEOT 206 RcF200014 0:54:21,1010:13,0
12h1397GEGOUT SébastienVOSGIENGERARD PascalCITROËN C2 VTSFA6K50s0:54:22,6010:14,50
12h1517GAIDOZ HervéCHAMPAGNERICHARD FrançoisSUBARU Impreza WRXA8 10:56:44,40Super Rallye
12h1620CAMBOULAS BrunoINGRESGUILLOT PierreSUBARU Impreza GTFA8 0:54:22,6010:14,50
12h1719LASSAUGE RobertANTIBES JUAN-LES-PINSDESCAMPS Jean-CharlesMITSUBISHI Lancer Evo6FA8 0:55:04,8010:56,70
12h1836PELUTTIERO ThibaudGRASSECONTANT XavierB.M.W. 325 iXFN420s0:55:13,8011:05,70
12h1983ROMIGUIERE JoëlROUTE D'ARGENTSALAVILLE AlainCITROËN C2 R2 MaxRR2 0:55:18,1011:10,0
12h2092MARCOBAL ThierryALESMARCOBAL-BASTIDE CantinCITROËN Saxo T4FA6K30s0:55:21,4011:13,30
12h2193LUCADOU DominiqueROUTE D'ARGENTTRUBUIL YannCITROËN Saxo T4FA6K 11:33:32,90Super Rallye
12h22130PUT WilliamVAISONNAISEBERENGIER ClémentCITROËN Saxo VTSFN2 0:55:22,2011:14,10
12h23117BELLIARDO DanielROUTE D'ARGENTBRAQUET Jean-BaptistePEUGEOT 306 S16FN3 0:55:30,011:21,90
12h24106COLOMBE GeoffroyROQUE ET DURANCETIBLE ThierryPEUGEOT 206 RcF200014 0:55:32,1011:24,0
12h25109LOPEZ EtienneISTRESMORGET ArnaudRENAULT Clio RSF200014 0:55:32,6011:24,50
12h26107JARLAN MaximeROUTE D'ARGENTCAMALY ThierryRENAULT Clio RSF200014 0:55:44,3011:36,20
12h27134GRANSAGNE AlexandreROUTE D'ARGENTLACOUT FlorianCITROËN Saxo VTSF200012 0:55:45,5011:37,40
12h28122VANTILLARD Jean-MarcDRÔMEDARRAS PascalinePEUGEOT 106 S16F200013 0:55:49,9011:41,80
12h29120PERROT ThierryAUGIASANDRIEU AlainRENAULT Clio RSFN3 0:55:50,1011:42,0
12h30125RAKOTOMALALA AndryMadagascarANDRIANTSEHENO Andry Jean-LucPEUGEOT 106 S16F200013 0:55:55,8011:47,70
12h3186MOULIN FrançoisLOZEREBOYER JulienPEUGEOT 205 GTIFA7 0:55:56,7011:48,60
12h3285GINIER CédricLOZERETURIERE FrédéricPEUGEOT 206 RcFA7 11:33:32,90Super Rallye
12h3387ROCHER ArnaudLOZEREPAULHAN SabineRENAULT Clio RSFA7 11:05:22,90Super Rallye
12h34118LAURENCE YvesSEQUANIEPREVALET MickaëlPEUGEOT 306 S16FN3 0:56:21,5012:13,40
12h3594BRENIAUX SébastienAUXERROISJACQUES AnthonyPEUGEOT 206 XSFA6K 0:56:27,7012:19,60
12h3632PRIOLO LaurentANTIBES JUAN-LES-PINSDALMAS YannickMITSUBISHI Lancer Evo5FN410s0:57:44,013:35,90
12h3726ALVERNHES FlorentDU VARCAVARERO GuyMITSUBISHI Lancer Evo9FN4 11:33:32,90Super Rallye
12h38127THIERY ArnaudFOREZBARD JérômePEUGEOT 106 S16FN2 0:57:44,9013:36,80
12h3984VATANEN MaxFinlandeRENUCCI Jacques-JulienFORD Fiesta R2RR2 0:57:52,3013:44,20
12h4076GAGNEUR HervéJURADESNOYERS Jean-PhilippeCITROËN DS3 R3RR3 0:57:56,8013:48,70
12h4177CHAPUS SergePAYS D'OLMESFAVREAU MathieuCITROËN DS3 R3RR3 11:03:30,30Super Rallye
12h42136MASSON PascalLANGRESBOISSET JamesPEUGEOT 106 XSIFN1 0:58:32,8014:24,70
12h43114SANHES YvesINGRESSANHES ChristineB.M.W. 318i CompactF200014 0:58:38,8014:30,70
12h4461VERRY VanessaMAINE-BRETAGNEOUVRY EleonorePEUGEOT 208 VTIRR2 0:58:54,3014:46,20
12h45126GORGEOT YannCORSICASPIESSENS AnthonyCITROËN Saxo VTSF200013 0:59:44,4015:36,30
12h46113CADARS DidierROUTE D'ARGENTLAVERGNE HervéRENAULT 11 TurboF200014 0:59:54,6015:46,50
12h47132QUARROZ DamienROUTE D'ARGENTVOLPI CécilePEUGEOT 106 S16FN2 1:00:00,3015:52,20
12h48115TARDY AurélienROUTE D'ARGENTBENELHOCINE CyrilPEUGEOT 206 RcF20001410s1:01:01,3016:53,20
12h4955WAGEMANS JoachimBelgiqueDE BAEREMAEKER AndyPEUGEOT 208 VTIRR2 1:01:23,4017:15,30
12h50129DOLGOPYATOFF DamienVAISONNAISENEGRON JérémySUZUKI SwiftN2 1:02:04,5017:56,40
12h51116EHRET GrégoryNICEDEVIN VISTE FrançoisePEUGEOT 206 RcF200014 1:03:23,2019:15,10
12h52137VERGNES FabienneROUTE D'ARGENTBARTHE JessicaPEUGEOT 106 XSIFN1 1:04:35,6020:27,50
12h53138PERRIN LionelDÔME FOREZTOURNEBIZE AurélienPEUGEOT 106 XNF200011 1:04:46,3020:38,20
12h54112SAFFIOTI LionelMARSEILLEBONIFACJ LionelCITROËN ZX 16VF20001420s1:06:03,2021:55,10
12h55110MONTEILS FranckSAINT-AFFRIQUEPY JohanPEUGEOT 309 GTIF200014 11:01:20,80Super Rallye
12h56131DI PAOLO AlainDE LA LOIREMORILLON FrederikaPEUGEOT 106 S16FN2 1:07:00,9022:52,80
12h57128VAILLE MickaëlLOZEREMONIER GillesPEUGEOT 205 GTIFN2 11:33:32,90Super Rallye
12h58133NICOULAU FlorianROUTE D'ARGENTMACHABERT MaximeCITROËN Saxo VTSFN2 11:33:32,90Super Rallye
12h59139FRANÇOIS LéaLANGRESFRANÇOIS SolèneCITROËN Visa GTF200011 1:12:09,8028:01,70
13h00121BELTRAMI CyrilMONT-BLANCBARRACHIN FlorianPEUGEOT 206 XSF200013 1:14:12,8030:04,70